sensor_id;sensor_type;location;lat;lon;timestamp;temperature;humidity
19033;DHT22;9649;51.042;13.804;2023-05-02T00:00:17;14.30;1.00
19033;DHT22;9649;51.042;13.804;2023-05-02T00:05:20;14.30;1.00
19033;DHT22;9649;51.042;13.804;2023-05-02T00:10:22;14.30;1.00
19033;DHT22;9649;51.042;13.804;2023-05-02T00:15:27;14.30;1.00
19033;DHT22;9649;51.042;13.804;2023-05-02T00:20:29;14.10;1.00
19033;DHT22;9649;51.042;13.804;2023-05-02T00:25:32;14.10;1.00
19033;DHT22;9649;51.042;13.804;2023-05-02T00:30:42;14.00;1.00
19033;DHT22;9649;51.042;13.804;2023-05-02T00:35:45;14.00;99.90
19033;DHT22;9649;51.042;13.804;2023-05-02T00:40:49;14.00;1.00
19033;DHT22;9649;51.042;13.804;2023-05-02T00:45:54;14.00;1.00
19033;DHT22;9649;51.042;13.804;2023-05-02T00:50:57;14.00;99.90
19033;DHT22;9649;51.042;13.804;2023-05-02T00:56:01;13.90;1.00
19033;DHT22;9649;51.042;13.804;2023-05-02T01:01:15;13.80;63.40
19033;DHT22;9649;51.042;13.804;2023-05-02T01:06:35;13.80;1.00
19033;DHT22;9649;51.042;13.804;2023-05-02T01:11:47;13.70;99.90
19033;DHT22;9649;51.042;13.804;2023-05-02T01:16:51;13.70;1.00
19033;DHT22;9649;51.042;13.804;2023-05-02T01:21:55;13.60;1.00
19033;DHT22;9649;51.042;13.804;2023-05-02T01:27:06;13.60;1.00
19033;DHT22;9649;51.042;13.804;2023-05-02T01:32:15;13.70;1.00
19033;DHT22;9649;51.042;13.804;2023-05-02T01:37:19;13.80;1.00
19033;DHT22;9649;51.042;13.804;2023-05-02T01:42:24;13.90;1.00
19033;DHT22;9649;51.042;13.804;2023-05-02T01:47:28;13.80;99.90
19033;DHT22;9649;51.042;13.804;2023-05-02T01:52:32;13.60;99.90
19033;DHT22;9649;51.042;13.804;2023-05-02T01:57:36;13.60;1.00
19033;DHT22;9649;51.042;13.804;2023-05-02T02:02:44;13.80;10.60
19033;DHT22;9649;51.042;13.804;2023-05-02T02:07:48;13.80;99.90
19033;DHT22;9649;51.042;13.804;2023-05-02T02:12:53;13.70;10.50
19033;DHT22;9649;51.042;13.804;2023-05-02T02:18:00;13.80;99.90
19033;DHT22;9649;51.042;13.804;2023-05-02T02:23:06;13.70;99.90
19033;DHT22;9649;51.042;13.804;2023-05-02T02:28:09;13.80;99.90
19033;DHT22;9649;51.042;13.804;2023-05-02T02:33:13;13.70;1.00
19033;DHT22;9649;51.042;13.804;2023-05-02T02:38:22;13.70;1.00
19033;DHT22;9649;51.042;13.804;2023-05-02T02:43:33;13.50;99.90
19033;DHT22;9649;51.042;13.804;2023-05-02T02:48:42;13.30;1.00
19033;DHT22;9649;51.042;13.804;2023-05-02T02:53:57;13.30;1.00
19033;DHT22;9649;51.042;13.804;2023-05-02T02:59:13;13.30;1.00
19033;DHT22;9649;51.042;13.804;2023-05-02T03:04:20;13.30;99.90
19033;DHT22;9649;51.042;13.804;2023-05-02T03:09:24;13.40;1.00
19033;DHT22;9649;51.042;13.804;2023-05-02T03:14:30;13.30;1.00
19033;DHT22;9649;51.042;13.804;2023-05-02T03:19:34;13.40;99.90
19033;DHT22;9649;51.042;13.804;2023-05-02T03:24:37;13.60;1.00
19033;DHT22;9649;51.042;13.804;2023-05-02T03:29:40;13.70;1.00
19033;DHT22;9649;51.042;13.804;2023-05-02T03:34:45;13.60;1.00
19033;DHT22;9649;51.042;13.804;2023-05-02T03:39:47;13.50;99.90
19033;DHT22;9649;51.042;13.804;2023-05-02T03:44:51;13.60;1.00
19033;DHT22;9649;51.042;13.804;2023-05-02T03:49:55;13.60;1.00
19033;DHT22;9649;51.042;13.804;2023-05-02T03:55:00;13.50;1.00
19033;DHT22;9649;51.042;13.804;2023-05-02T04:00:04;13.40;99.90
19033;DHT22;9649;51.042;13.804;2023-05-02T04:05:09;13.40;1.00
19033;DHT22;9649;51.042;13.804;2023-05-02T04:10:11;13.30;99.90
19033;DHT22;9649;51.042;13.804;2023-05-02T04:15:17;13.30;99.90
19033;DHT22;9649;51.042;13.804;2023-05-02T04:20:21;13.20;99.90
19033;DHT22;9649;51.042;13.804;2023-05-02T04:25:23;13.10;1.00
19033;DHT22;9649;51.042;13.804;2023-05-02T04:30:26;13.10;99.90
19033;DHT22;9649;51.042;13.804;2023-05-02T04:35:31;13.20;1.00
19033;DHT22;9649;51.042;13.804;2023-05-02T04:40:34;13.20;99.90
19033;DHT22;9649;51.042;13.804;2023-05-02T04:45:36;13.30;99.90
19033;DHT22;9649;51.042;13.804;2023-05-02T04:50:40;13.40;1.00
19033;DHT22;9649;51.042;13.804;2023-05-02T04:55:43;13.50;1.00
19033;DHT22;9649;51.042;13.804;2023-05-02T05:00:46;13.60;99.90
19033;DHT22;9649;51.042;13.804;2023-05-02T05:05:50;13.60;99.90
19033;DHT22;9649;51.042;13.804;2023-05-02T05:10:53;13.70;99.90
19033;DHT22;9649;51.042;13.804;2023-05-02T05:15:56;13.70;1.00
19033;DHT22;9649;51.042;13.804;2023-05-02T05:21:00;13.90;1.00
19033;DHT22;9649;51.042;13.804;2023-05-02T05:26:10;14.00;99.90
19033;DHT22;9649;51.042;13.804;2023-05-02T05:31:13;14.10;39.50
19033;DHT22;9649;51.042;13.804;2023-05-02T05:36:19;14.30;99.90
19033;DHT22;9649;51.042;13.804;2023-05-02T05:41:24;14.30;1.00
19033;DHT22;9649;51.042;13.804;2023-05-02T05:46:27;14.40;1.00
19033;DHT22;9649;51.042;13.804;2023-05-02T05:51:31;14.20;1.00
19033;DHT22;9649;51.042;13.804;2023-05-02T05:56:33;14.50;1.00
19033;DHT22;9649;51.042;13.804;2023-05-02T06:01:36;14.50;1.00
19033;DHT22;9649;51.042;13.804;2023-05-02T06:06:40;14.70;99.90
19033;DHT22;9649;51.042;13.804;2023-05-02T06:11:43;14.80;99.90
19033;DHT22;9649;51.042;13.804;2023-05-02T06:16:46;15.20;1.00
19033;DHT22;9649;51.042;13.804;2023-05-02T06:21:50;15.50;1.00
19033;DHT22;9649;51.042;13.804;2023-05-02T06:26:53;15.70;1.00
19033;DHT22;9649;51.042;13.804;2023-05-02T06:31:55;15.60;1.00
19033;DHT22;9649;51.042;13.804;2023-05-02T06:37:00;15.50;1.00
19033;DHT22;9649;51.042;13.804;2023-05-02T06:42:02;15.60;1.00
19033;DHT22;9649;51.042;13.804;2023-05-02T06:47:05;15.90;1.00
19033;DHT22;9649;51.042;13.804;2023-05-02T06:52:09;16.00;99.90
19033;DHT22;9649;51.042;13.804;2023-05-02T06:57:12;16.20;99.90
19033;DHT22;9649;51.042;13.804;2023-05-02T07:02:15;16.10;99.90
19033;DHT22;9649;51.042;13.804;2023-05-02T07:07:19;16.00;99.90
19033;DHT22;9649;51.042;13.804;2023-05-02T07:12:22;16.20;99.90
19033;DHT22;9649;51.042;13.804;2023-05-02T07:17:25;16.40;99.90
19033;DHT22;9649;51.042;13.804;2023-05-02T07:22:29;16.90;99.90
19033;DHT22;9649;51.042;13.804;2023-05-02T07:27:32;16.80;30.00
19033;DHT22;9649;51.042;13.804;2023-05-02T07:32:35;16.70;99.90
19033;DHT22;9649;51.042;13.804;2023-05-02T07:37:39;16.60;99.90
19033;DHT22;9649;51.042;13.804;2023-05-02T07:42:42;16.90;95.10
19033;DHT22;9649;51.042;13.804;2023-05-02T07:47:45;16.70;99.90
19033;DHT22;9649;51.042;13.804;2023-05-02T07:52:49;16.20;99.90
19033;DHT22;9649;51.042;13.804;2023-05-02T07:57:52;16.10;1.00
19033;DHT22;9649;51.042;13.804;2023-05-02T08:02:54;15.80;1.00
19033;DHT22;9649;51.042;13.804;2023-05-02T08:07:59;15.70;1.00
19033;DHT22;9649;51.042;13.804;2023-05-02T08:13:03;16.00;1.00
19033;DHT22;9649;51.042;13.804;2023-05-02T08:18:05;15.90;1.00
19033;DHT22;9649;51.042;13.804;2023-05-02T08:23:10;16.40;1.00
19033;DHT22;9649;51.042;13.804;2023-05-02T08:28:12;17.40;99.90
19033;DHT22;9649;51.042;13.804;2023-05-02T08:33:15;17.70;99.90
19033;DHT22;9649;51.042;13.804;2023-05-02T08:38:19;18.30;1.00
19033;DHT22;9649;51.042;13.804;2023-05-02T08:43:22;19.00;1.00
19033;DHT22;9649;51.042;13.804;2023-05-02T08:48:26;19.50;1.00
19033;DHT22;9649;51.042;13.804;2023-05-02T08:53:32;20.00;1.00
19033;DHT22;9649;51.042;13.804;2023-05-02T08:58:38;20.40;1.00
19033;DHT22;9649;51.042;13.804;2023-05-02T09:03:43;21.40;1.00
19033;DHT22;9649;51.042;13.804;2023-05-02T09:08:49;22.40;1.00
19033;DHT22;9649;51.042;13.804;2023-05-02T09:13:53;20.50;1.00
19033;DHT22;9649;51.042;13.804;2023-05-02T09:18:57;22.30;1.00
19033;DHT22;9649;51.042;13.804;2023-05-02T09:24:14;24.50;1.00
19033;DHT22;9649;51.042;13.804;2023-05-02T09:29:18;25.40;99.90
19033;DHT22;9649;51.042;13.804;2023-05-02T09:34:23;25.60;99.90
19033;DHT22;9649;51.042;13.804;2023-05-02T09:39:27;24.40;99.90
19033;DHT22;9649;51.042;13.804;2023-05-02T09:44:36;25.20;99.90
19033;DHT22;9649;51.042;13.804;2023-05-02T09:49:41;23.50;99.90
19033;DHT22;9649;51.042;13.804;2023-05-02T09:54:49;24.50;99.90
19033;DHT22;9649;51.042;13.804;2023-05-02T09:59:55;23.80;99.90
19033;DHT22;9649;51.042;13.804;2023-05-02T10:05:00;23.60;99.90
19033;DHT22;9649;51.042;13.804;2023-05-02T10:10:07;23.00;99.90
19033;DHT22;9649;51.042;13.804;2023-05-02T10:15:15;24.70;99.90
19033;DHT22;9649;51.042;13.804;2023-05-02T10:20:22;24.80;99.90
19033;DHT22;9649;51.042;13.804;2023-05-02T10:25:53;23.80;99.90
19033;DHT22;9649;51.042;13.804;2023-05-02T10:44:53;21.80;1.00
19033;DHT22;9649;51.042;13.804;2023-05-02T10:50:03;23.20;1.00
19033;DHT22;9649;51.042;13.804;2023-05-02T10:55:13;23.60;1.00
19033;DHT22;9649;51.042;13.804;2023-05-02T11:00:23;25.20;99.90
19033;DHT22;9649;51.042;13.804;2023-05-02T11:05:27;26.10;99.90
19033;DHT22;9649;51.042;13.804;2023-05-02T11:10:29;25.60;99.90
19033;DHT22;9649;51.042;13.804;2023-05-02T11:15:55;24.10;99.90
19033;DHT22;9649;51.042;13.804;2023-05-02T11:21:25;22.30;99.90
19033;DHT22;9649;51.042;13.804;2023-05-02T11:26:33;20.70;1.00
19033;DHT22;9649;51.042;13.804;2023-05-02T11:32:04;20.40;1.00
19033;DHT22;9649;51.042;13.804;2023-05-02T11:37:11;20.20;1.00
19033;DHT22;9649;51.042;13.804;2023-05-02T11:42:27;23.30;1.00
19033;DHT22;9649;51.042;13.804;2023-05-02T11:47:32;27.00;99.90
19033;DHT22;9649;51.042;13.804;2023-05-02T11:52:36;29.60;99.90
19033;DHT22;9649;51.042;13.804;2023-05-02T11:57:40;28.70;99.90
19033;DHT22;9649;51.042;13.804;2023-05-02T12:02:45;29.80;99.90
19033;DHT22;9649;51.042;13.804;2023-05-02T12:07:49;31.60;99.90
19033;DHT22;9649;51.042;13.804;2023-05-02T12:13:03;32.40;99.90
19033;DHT22;9649;51.042;13.804;2023-05-02T12:18:07;32.20;99.90
19033;DHT22;9649;51.042;13.804;2023-05-02T12:23:11;31.70;99.90
19033;DHT22;9649;51.042;13.804;2023-05-02T12:28:15;27.90;99.90
19033;DHT22;9649;51.042;13.804;2023-05-02T12:33:20;25.30;99.90
19033;DHT22;9649;51.042;13.804;2023-05-02T12:38:22;22.10;99.90
19033;DHT22;9649;51.042;13.804;2023-05-02T12:43:26;21.80;1.00
19033;DHT22;9649;51.042;13.804;2023-05-02T12:48:30;22.70;1.00
19033;DHT22;9649;51.042;13.804;2023-05-02T12:53:40;24.10;1.00
19033;DHT22;9649;51.042;13.804;2023-05-02T12:58:45;27.90;99.90
19033;DHT22;9649;51.042;13.804;2023-05-02T13:03:50;30.00;99.90
19033;DHT22;9649;51.042;13.804;2023-05-02T13:08:52;27.00;99.90
19033;DHT22;9649;51.042;13.804;2023-05-02T13:13:55;24.70;99.90
19033;DHT22;9649;51.042;13.804;2023-05-02T13:19:01;27.30;99.90
19033;DHT22;9649;51.042;13.804;2023-05-02T13:24:05;31.20;99.90
19033;DHT22;9649;51.042;13.804;2023-05-02T13:29:08;32.40;99.90
19033;DHT22;9649;51.042;13.804;2023-05-02T13:34:13;29.70;99.90
19033;DHT22;9649;51.042;13.804;2023-05-02T13:39:16;27.20;99.90
19033;DHT22;9649;51.042;13.804;2023-05-02T13:44:18;25.30;99.90
19033;DHT22;9649;51.042;13.804;2023-05-02T13:49:22;24.70;99.90
19033;DHT22;9649;51.042;13.804;2023-05-02T13:54:25;23.50;99.90
19033;DHT22;9649;51.042;13.804;2023-05-02T13:59:28;22.60;99.90
19033;DHT22;9649;51.042;13.804;2023-05-02T14:04:32;22.50;99.90
19033;DHT22;9649;51.042;13.804;2023-05-02T14:09:35;22.00;1.00
19033;DHT22;9649;51.042;13.804;2023-05-02T14:14:38;20.70;1.00
19033;DHT22;9649;51.042;13.804;2023-05-02T14:19:42;20.50;1.00
19033;DHT22;9649;51.042;13.804;2023-05-02T14:24:45;20.40;1.00
19033;DHT22;9649;51.042;13.804;2023-05-02T14:29:48;21.80;1.00
19033;DHT22;9649;51.042;13.804;2023-05-02T14:34:52;26.40;1.00
19033;DHT22;9649;51.042;13.804;2023-05-02T14:39:55;28.50;99.90
19033;DHT22;9649;51.042;13.804;2023-05-02T14:44:59;27.00;99.90
19033;DHT22;9649;51.042;13.804;2023-05-02T14:50:05;24.30;99.90
19033;DHT22;9649;51.042;13.804;2023-05-02T14:55:11;22.40;99.90
19033;DHT22;9649;51.042;13.804;2023-05-02T15:00:15;21.30;1.00
19033;DHT22;9649;51.042;13.804;2023-05-02T15:05:19;19.90;1.00
19033;DHT22;9649;51.042;13.804;2023-05-02T15:10:22;18.30;99.90
19033;DHT22;9649;51.042;13.804;2023-05-02T15:15:25;17.70;1.00
19033;DHT22;9649;51.042;13.804;2023-05-02T15:20:29;17.60;1.00
19033;DHT22;9649;51.042;13.804;2023-05-02T15:25:31;17.20;1.00
19033;DHT22;9649;51.042;13.804;2023-05-02T15:30:34;17.00;1.00
19033;DHT22;9649;51.042;13.804;2023-05-02T15:35:38;17.00;99.90
19033;DHT22;9649;51.042;13.804;2023-05-02T15:40:41;17.00;99.90
19033;DHT22;9649;51.042;13.804;2023-05-02T15:45:43;16.50;1.00
19033;DHT22;9649;51.042;13.804;2023-05-02T15:50:47;16.60;1.00
19033;DHT22;9649;51.042;13.804;2023-05-02T15:55:51;16.20;1.00
19033;DHT22;9649;51.042;13.804;2023-05-02T16:00:54;16.10;99.90
19033;DHT22;9649;51.042;13.804;2023-05-02T16:05:58;16.20;1.00
19033;DHT22;9649;51.042;13.804;2023-05-02T16:11:01;16.30;1.00
19033;DHT22;9649;51.042;13.804;2023-05-02T16:16:04;16.20;1.00
19033;DHT22;9649;51.042;13.804;2023-05-02T16:21:09;16.30;1.00
19033;DHT22;9649;51.042;13.804;2023-05-02T16:26:12;16.20;99.90
19033;DHT22;9649;51.042;13.804;2023-05-02T16:31:15;16.10;99.90
19033;DHT22;9649;51.042;13.804;2023-05-02T16:36:19;16.00;1.00
19033;DHT22;9649;51.042;13.804;2023-05-02T16:41:21;15.80;1.00
19033;DHT22;9649;51.042;13.804;2023-05-02T16:46:24;15.70;1.00
19033;DHT22;9649;51.042;13.804;2023-05-02T16:51:28;15.60;1.00
19033;DHT22;9649;51.042;13.804;2023-05-02T16:56:32;15.40;1.00
19033;DHT22;9649;51.042;13.804;2023-05-02T17:01:34;15.40;99.90
19033;DHT22;9649;51.042;13.804;2023-05-02T17:06:38;15.20;99.90
19033;DHT22;9649;51.042;13.804;2023-05-02T17:11:41;15.10;67.90
19033;DHT22;9649;51.042;13.804;2023-05-02T17:16:44;14.90;99.90
19033;DHT22;9649;51.042;13.804;2023-05-02T17:21:49;14.90;99.90
19033;DHT22;9649;51.042;13.804;2023-05-02T17:26:55;14.80;1.00
19033;DHT22;9649;51.042;13.804;2023-05-02T17:31:58;14.60;1.00
19033;DHT22;9649;51.042;13.804;2023-05-02T17:37:03;14.60;19.90
19033;DHT22;9649;51.042;13.804;2023-05-02T17:42:07;14.40;1.00
19033;DHT22;9649;51.042;13.804;2023-05-02T17:47:10;14.50;1.00
19033;DHT22;9649;51.042;13.804;2023-05-02T17:52:14;14.40;1.00
19033;DHT22;9649;51.042;13.804;2023-05-02T17:57:17;14.30;1.00
19033;DHT22;9649;51.042;13.804;2023-05-02T18:02:20;14.30;1.00
19033;DHT22;9649;51.042;13.804;2023-05-02T18:07:24;14.20;1.00
19033;DHT22;9649;51.042;13.804;2023-05-02T18:12:30;14.20;1.00
19033;DHT22;9649;51.042;13.804;2023-05-02T18:17:34;14.00;1.00
19033;DHT22;9649;51.042;13.804;2023-05-02T18:22:40;13.80;1.00
19033;DHT22;9649;51.042;13.804;2023-05-02T18:27:58;13.70;1.00
19033;DHT22;9649;51.042;13.804;2023-05-02T18:33:01;13.60;1.00
19033;DHT22;9649;51.042;13.804;2023-05-02T18:38:06;13.50;1.00
19033;DHT22;9649;51.042;13.804;2023-05-02T18:43:12;13.50;18.80
19033;DHT22;9649;51.042;13.804;2023-05-02T18:48:17;13.40;78.00
19033;DHT22;9649;51.042;13.804;2023-05-02T18:53:21;13.30;99.90
19033;DHT22;9649;51.042;13.804;2023-05-02T18:58:26;13.10;99.90
19033;DHT22;9649;51.042;13.804;2023-05-02T19:03:29;13.00;99.90
19033;DHT22;9649;51.042;13.804;2023-05-02T19:08:39;13.00;99.90
19033;DHT22;9649;51.042;13.804;2023-05-02T19:14:04;13.00;99.90
19033;DHT22;9649;51.042;13.804;2023-05-02T19:19:45;12.90;99.90
19033;DHT22;9649;51.042;13.804;2023-05-02T19:31:38;12.90;1.00
19033;DHT22;9649;51.042;13.804;2023-05-02T19:36:55;12.90;1.00
19033;DHT22;9649;51.042;13.804;2023-05-02T19:42:00;12.80;1.00
19033;DHT22;9649;51.042;13.804;2023-05-02T19:47:10;12.70;1.00
19033;DHT22;9649;51.042;13.804;2023-05-02T19:52:14;12.60;96.20
19033;DHT22;9649;51.042;13.804;2023-05-02T19:58:15;12.30;22.90
19033;DHT22;9649;51.042;13.804;2023-05-02T20:09:56;12.00;99.90
19033;DHT22;9649;51.042;13.804;2023-05-02T20:15:08;11.90;99.90
19033;DHT22;9649;51.042;13.804;2023-05-02T20:20:14;11.90;99.90
19033;DHT22;9649;51.042;13.804;2023-05-02T20:25:36;11.80;99.90
19033;DHT22;9649;51.042;13.804;2023-05-02T20:31:17;11.50;1.00
19033;DHT22;9649;51.042;13.804;2023-05-02T20:36:24;11.40;1.00
19033;DHT22;9649;51.042;13.804;2023-05-02T20:48:08;11.50;99.90
19033;DHT22;9649;51.042;13.804;2023-05-02T20:59:59;11.70;1.00
19033;DHT22;9649;51.042;13.804;2023-05-02T21:05:50;11.60;1.00
19033;DHT22;9649;51.042;13.804;2023-05-02T21:11:12;11.70;1.00
19033;DHT22;9649;51.042;13.804;2023-05-02T21:16:16;11.70;1.00
19033;DHT22;9649;51.042;13.804;2023-05-02T21:21:21;11.50;1.00
19033;DHT22;9649;51.042;13.804;2023-05-02T21:26:24;11.40;1.00
19033;DHT22;9649;51.042;13.804;2023-05-02T21:31:27;11.40;1.00
19033;DHT22;9649;51.042;13.804;2023-05-02T21:36:31;11.40;1.00
19033;DHT22;9649;51.042;13.804;2023-05-02T21:41:34;11.40;1.00
19033;DHT22;9649;51.042;13.804;2023-05-02T21:46:37;11.30;1.00
19033;DHT22;9649;51.042;13.804;2023-05-02T21:51:41;11.30;1.00
19033;DHT22;9649;51.042;13.804;2023-05-02T21:56:43;11.40;1.00
19033;DHT22;9649;51.042;13.804;2023-05-02T22:01:46;11.20;1.00
19033;DHT22;9649;51.042;13.804;2023-05-02T22:06:51;11.30;1.00
19033;DHT22;9649;51.042;13.804;2023-05-02T22:11:54;11.30;1.00
19033;DHT22;9649;51.042;13.804;2023-05-02T22:16:58;11.20;1.00
19033;DHT22;9649;51.042;13.804;2023-05-02T22:22:04;11.10;1.00
19033;DHT22;9649;51.042;13.804;2023-05-02T22:27:07;11.10;1.00
19033;DHT22;9649;51.042;13.804;2023-05-02T22:32:10;11.10;1.00
19033;DHT22;9649;51.042;13.804;2023-05-02T22:37:14;11.00;1.00
19033;DHT22;9649;51.042;13.804;2023-05-02T22:42:17;10.90;1.00
19033;DHT22;9649;51.042;13.804;2023-05-02T22:47:29;10.90;99.90
19033;DHT22;9649;51.042;13.804;2023-05-02T22:52:34;11.00;1.00
19033;DHT22;9649;51.042;13.804;2023-05-02T22:57:38;11.00;1.00
19033;DHT22;9649;51.042;13.804;2023-05-02T23:02:41;11.00;1.00
19033;DHT22;9649;51.042;13.804;2023-05-02T23:07:45;10.90;1.00
19033;DHT22;9649;51.042;13.804;2023-05-02T23:12:48;10.70;99.90
19033;DHT22;9649;51.042;13.804;2023-05-02T23:17:51;10.70;1.00
19033;DHT22;9649;51.042;13.804;2023-05-02T23:22:55;10.60;99.90
19033;DHT22;9649;51.042;13.804;2023-05-02T23:27:59;10.60;99.90
19033;DHT22;9649;51.042;13.804;2023-05-02T23:33:01;10.60;99.90
19033;DHT22;9649;51.042;13.804;2023-05-02T23:38:06;10.60;1.00
19033;DHT22;9649;51.042;13.804;2023-05-02T23:43:09;10.60;1.00
19033;DHT22;9649;51.042;13.804;2023-05-02T23:48:14;10.60;1.00
19033;DHT22;9649;51.042;13.804;2023-05-02T23:53:18;10.60;1.00
19033;DHT22;9649;51.042;13.804;2023-05-02T23:58:21;10.60;1.00
